Estación Meteorológica Peña el Pijo (Robertgarden) [ 01/30/23 14:15:35 CET ]

Fecha Hora Presion(HPa) Temp (°C) Humedad % Rocio (°C) Viento ( m/s) Direccion Lluvia 1Hora(mm) Lluvia 24H(mm) LLuvia Total(mm)
2012-Apr-24 01:01:14 1005.300 11.4 58 3.4 3.1 ESE     158.50
2012-Apr-24 02:01:16 1005.000 10.9 61 3.6 1.7 SE     158.50
2012-Apr-24 03:05:14 1004.600 10.4 63 3.6 3.0 SSE     158.50
2012-Apr-24 04:01:16 1004.500 9.8 65 3.5 1.1 SSE     158.50
2012-Apr-24 05:01:12 1004.400 9.4 67 3.5         158.50
2012-Apr-24 06:01:10 1004.500 9.0 68 3.4         158.50
2012-Apr-24 07:01:17 1004.800 8.8 68 3.2         158.50
2012-Apr-24 08:01:12 1005.000 8.9 68 3.3 1.5 SSW     158.50
2012-Apr-24 09:01:14 1005.400 11.9 59 4.1         158.50
2012-Apr-24 10:01:16 1005.600 13.3 52 3.6 1.9 W     158.50
2012-Apr-24 11:01:16 1006.100 14.7 49 4.1 0.8 SE     158.50
2012-Apr-24 12:01:16 1006.700 15.8 43 3.2 1.9 S     158.50
2012-Apr-24 13:01:12 1005.900 17.4 35 1.7 1.9 N     158.50
2012-Apr-24 14:01:18 1006.100 18.9 31 1.4 0.9 E     158.50
2012-Apr-24 15:01:13 1005.500 20.5 27 0.7 1.1 NW     158.50
2012-Apr-24 16:01:16 1005.400 21.0 26 0.6 2.0 S     158.50
2012-Apr-24 17:01:16 1005.300 21.1 26 0.6 2.1 SSW     158.50
2012-Apr-24 18:01:21 1005.400 21.3 26 0.8 2.7 SSE     158.50
2012-Apr-24 19:01:17 1005.500 19.9 27 0.2         158.50
2012-Apr-24 20:01:12 1005.500 16.4 32 -0.4 2.4 WSW     158.50
2012-Apr-24 21:01:14 1006.000 13.5 38 -0.6         158.50
2012-Apr-24 22:01:14 1006.400 11.3 45 -0.3         158.50
2012-Apr-24 23:01:19 1006.700 9.2 52 -0.2         158.50

Temperatura Máxima:21°    Temperatura Mínima:
Presión Máxima:1006.700 Hpa    Presión Mínima:1004.400 Hpa


Volver